sensor_id;sensor_type;location;lat;lon;timestamp;temperature;humidity
4376;DHT22;2202;50.866;12.750;2023-03-16T00:01:04;-2.30;95.70
4376;DHT22;2202;50.866;12.750;2023-03-16T00:03:31;-2.30;95.60
4376;DHT22;2202;50.866;12.750;2023-03-16T00:05:59;-2.20;95.40
4376;DHT22;2202;50.866;12.750;2023-03-16T00:08:25;-2.20;95.20
4376;DHT22;2202;50.866;12.750;2023-03-16T00:10:52;-2.20;95.10
4376;DHT22;2202;50.866;12.750;2023-03-16T00:13:21;-2.20;94.80
4376;DHT22;2202;50.866;12.750;2023-03-16T00:15:51;-2.20;94.70
4376;DHT22;2202;50.866;12.750;2023-03-16T00:18:18;-2.20;94.50
4376;DHT22;2202;50.866;12.750;2023-03-16T00:20:49;-2.30;94.40
4376;DHT22;2202;50.866;12.750;2023-03-16T00:23:16;-2.30;94.30
4376;DHT22;2202;50.866;12.750;2023-03-16T00:25:43;-2.30;94.20
4376;DHT22;2202;50.866;12.750;2023-03-16T00:28:10;-2.30;94.10
4376;DHT22;2202;50.866;12.750;2023-03-16T00:30:38;-2.30;94.10
4376;DHT22;2202;50.866;12.750;2023-03-16T00:33:06;-2.30;94.00
4376;DHT22;2202;50.866;12.750;2023-03-16T00:35:35;-2.40;94.10
4376;DHT22;2202;50.866;12.750;2023-03-16T00:38:02;-2.30;94.00
4376;DHT22;2202;50.866;12.750;2023-03-16T00:40:28;-2.40;94.00
4376;DHT22;2202;50.866;12.750;2023-03-16T00:42:58;-2.40;94.00
4376;DHT22;2202;50.866;12.750;2023-03-16T00:45:26;-2.40;94.00
4376;DHT22;2202;50.866;12.750;2023-03-16T00:47:53;-2.40;94.00
4376;DHT22;2202;50.866;12.750;2023-03-16T00:50:21;-2.40;94.00
4376;DHT22;2202;50.866;12.750;2023-03-16T00:52:48;-2.40;94.00
4376;DHT22;2202;50.866;12.750;2023-03-16T00:55:18;-2.40;94.10
4376;DHT22;2202;50.866;12.750;2023-03-16T00:57:45;-2.40;94.00
4376;DHT22;2202;50.866;12.750;2023-03-16T01:00:13;-2.40;94.00
4376;DHT22;2202;50.866;12.750;2023-03-16T01:02:41;-2.50;94.00
4376;DHT22;2202;50.866;12.750;2023-03-16T01:05:10;-2.50;94.00
4376;DHT22;2202;50.866;12.750;2023-03-16T01:07:39;-2.50;94.00
4376;DHT22;2202;50.866;12.750;2023-03-16T01:10:07;-2.50;94.00
4376;DHT22;2202;50.866;12.750;2023-03-16T01:12:34;-2.50;94.00
4376;DHT22;2202;50.866;12.750;2023-03-16T01:15:01;-2.60;94.00
4376;DHT22;2202;50.866;12.750;2023-03-16T01:17:28;-2.60;93.90
4376;DHT22;2202;50.866;12.750;2023-03-16T01:19:59;-2.60;93.90
4376;DHT22;2202;50.866;12.750;2023-03-16T01:22:26;-2.70;93.80
4376;DHT22;2202;50.866;12.750;2023-03-16T01:24:54;-2.70;93.80
4376;DHT22;2202;50.866;12.750;2023-03-16T01:27:21;-2.70;93.80
4376;DHT22;2202;50.866;12.750;2023-03-16T01:29:50;-2.70;93.90
4376;DHT22;2202;50.866;12.750;2023-03-16T01:32:17;-2.80;93.90
4376;DHT22;2202;50.866;12.750;2023-03-16T01:34:44;-2.80;94.20
4376;DHT22;2202;50.866;12.750;2023-03-16T01:37:11;-2.80;94.10
4376;DHT22;2202;50.866;12.750;2023-03-16T01:39:38;-2.80;94.20
4376;DHT22;2202;50.866;12.750;2023-03-16T01:42:07;-2.80;94.30
4376;DHT22;2202;50.866;12.750;2023-03-16T01:44:50;-2.80;94.20
4376;DHT22;2202;50.866;12.750;2023-03-16T01:47:17;-2.80;94.20
4376;DHT22;2202;50.866;12.750;2023-03-16T01:49:45;-2.80;94.10
4376;DHT22;2202;50.866;12.750;2023-03-16T01:52:15;-2.90;94.10
4376;DHT22;2202;50.866;12.750;2023-03-16T01:54:46;-2.90;94.20
4376;DHT22;2202;50.866;12.750;2023-03-16T01:57:17;-2.90;94.20
4376;DHT22;2202;50.866;12.750;2023-03-16T01:59:47;-2.90;94.20
4376;DHT22;2202;50.866;12.750;2023-03-16T02:02:18;-2.90;94.40
4376;DHT22;2202;50.866;12.750;2023-03-16T02:04:49;-2.90;94.40
4376;DHT22;2202;50.866;12.750;2023-03-16T02:07:18;-3.00;94.50
4376;DHT22;2202;50.866;12.750;2023-03-16T02:09:49;-3.00;94.50
4376;DHT22;2202;50.866;12.750;2023-03-16T02:12:19;-3.00;94.40
4376;DHT22;2202;50.866;12.750;2023-03-16T02:14:48;-3.00;94.50
4376;DHT22;2202;50.866;12.750;2023-03-16T02:17:18;-3.00;94.40
4376;DHT22;2202;50.866;12.750;2023-03-16T02:19:55;-3.00;94.40
4376;DHT22;2202;50.866;12.750;2023-03-16T02:22:25;-3.00;94.40
4376;DHT22;2202;50.866;12.750;2023-03-16T02:24:53;-3.00;94.40
4376;DHT22;2202;50.866;12.750;2023-03-16T02:27:26;-3.10;94.50
4376;DHT22;2202;50.866;12.750;2023-03-16T02:30:03;-3.10;94.50
4376;DHT22;2202;50.866;12.750;2023-03-16T02:32:31;-3.10;94.40
4376;DHT22;2202;50.866;12.750;2023-03-16T02:34:59;-3.10;94.40
4376;DHT22;2202;50.866;12.750;2023-03-16T02:37:27;-3.10;94.30
4376;DHT22;2202;50.866;12.750;2023-03-16T02:39:54;-3.20;94.30
4376;DHT22;2202;50.866;12.750;2023-03-16T02:42:22;-3.20;94.40
4376;DHT22;2202;50.866;12.750;2023-03-16T02:44:53;-3.20;94.40
4376;DHT22;2202;50.866;12.750;2023-03-16T02:47:27;-3.20;94.40
4376;DHT22;2202;50.866;12.750;2023-03-16T02:49:55;-3.20;94.40
4376;DHT22;2202;50.866;12.750;2023-03-16T02:52:23;-3.30;94.40
4376;DHT22;2202;50.866;12.750;2023-03-16T02:54:49;-3.30;94.40
4376;DHT22;2202;50.866;12.750;2023-03-16T02:57:16;-3.30;94.40
4376;DHT22;2202;50.866;12.750;2023-03-16T02:59:43;-3.30;94.40
4376;DHT22;2202;50.866;12.750;2023-03-16T03:02:10;-3.30;94.40
4376;DHT22;2202;50.866;12.750;2023-03-16T03:04:38;-3.30;94.40
4376;DHT22;2202;50.866;12.750;2023-03-16T03:07:06;-3.30;94.40
4376;DHT22;2202;50.866;12.750;2023-03-16T03:09:41;-3.40;94.40
4376;DHT22;2202;50.866;12.750;2023-03-16T03:12:18;-3.40;94.40
4376;DHT22;2202;50.866;12.750;2023-03-16T03:14:44;-3.40;94.50
4376;DHT22;2202;50.866;12.750;2023-03-16T03:17:11;-3.40;94.40
4376;DHT22;2202;50.866;12.750;2023-03-16T03:19:40;-3.40;94.50
4376;DHT22;2202;50.866;12.750;2023-03-16T03:22:07;-3.40;94.50
4376;DHT22;2202;50.866;12.750;2023-03-16T03:24:34;-3.40;94.60
4376;DHT22;2202;50.866;12.750;2023-03-16T03:27:01;-3.40;94.50
4376;DHT22;2202;50.866;12.750;2023-03-16T03:29:30;-3.40;94.50
4376;DHT22;2202;50.866;12.750;2023-03-16T03:31:59;-3.40;94.50
4376;DHT22;2202;50.866;12.750;2023-03-16T03:34:26;-3.50;94.50
4376;DHT22;2202;50.866;12.750;2023-03-16T03:36:54;-3.50;94.60
4376;DHT22;2202;50.866;12.750;2023-03-16T03:39:21;-3.50;94.60
4376;DHT22;2202;50.866;12.750;2023-03-16T03:41:48;-3.40;94.70
4376;DHT22;2202;50.866;12.750;2023-03-16T03:44:19;-3.40;94.60
4376;DHT22;2202;50.866;12.750;2023-03-16T03:46:45;-3.50;94.60
4376;DHT22;2202;50.866;12.750;2023-03-16T03:49:12;-3.50;94.50
4376;DHT22;2202;50.866;12.750;2023-03-16T03:51:39;-3.50;94.50
4376;DHT22;2202;50.866;12.750;2023-03-16T03:54:08;-3.50;94.40
4376;DHT22;2202;50.866;12.750;2023-03-16T03:56:35;-3.50;94.50
4376;DHT22;2202;50.866;12.750;2023-03-16T03:59:02;-3.50;94.50
4376;DHT22;2202;50.866;12.750;2023-03-16T04:01:29;-3.50;94.50
4376;DHT22;2202;50.866;12.750;2023-03-16T04:06:33;-3.60;94.50
4376;DHT22;2202;50.866;12.750;2023-03-16T04:09:09;-3.60;94.50
4376;DHT22;2202;50.866;12.750;2023-03-16T04:11:36;-3.60;94.50
4376;DHT22;2202;50.866;12.750;2023-03-16T04:14:03;-3.60;94.50
4376;DHT22;2202;50.866;12.750;2023-03-16T04:16:30;-3.60;94.50
4376;DHT22;2202;50.866;12.750;2023-03-16T04:18:58;-3.60;94.60
4376;DHT22;2202;50.866;12.750;2023-03-16T04:21:26;-3.60;94.70
4376;DHT22;2202;50.866;12.750;2023-03-16T04:23:53;-3.60;94.80
4376;DHT22;2202;50.866;12.750;2023-03-16T04:26:21;-3.60;94.80
4376;DHT22;2202;50.866;12.750;2023-03-16T04:28:50;-3.60;94.70
4376;DHT22;2202;50.866;12.750;2023-03-16T04:31:17;-3.60;94.80
4376;DHT22;2202;50.866;12.750;2023-03-16T04:33:44;-3.60;94.80
4376;DHT22;2202;50.866;12.750;2023-03-16T04:36:11;-3.70;94.80
4376;DHT22;2202;50.866;12.750;2023-03-16T04:38:38;-3.60;94.80
4376;DHT22;2202;50.866;12.750;2023-03-16T04:41:05;-3.70;94.80
4376;DHT22;2202;50.866;12.750;2023-03-16T04:43:34;-3.70;94.90
4376;DHT22;2202;50.866;12.750;2023-03-16T04:46:01;-3.70;94.80
4376;DHT22;2202;50.866;12.750;2023-03-16T04:48:29;-3.70;94.90
4376;DHT22;2202;50.866;12.750;2023-03-16T04:50:56;-3.70;95.00
4376;DHT22;2202;50.866;12.750;2023-03-16T04:53:23;-3.70;95.30
4376;DHT22;2202;50.866;12.750;2023-03-16T04:55:50;-3.70;95.30
4376;DHT22;2202;50.866;12.750;2023-03-16T04:58:17;-3.60;95.30
4376;DHT22;2202;50.866;12.750;2023-03-16T05:00:45;-3.70;95.20
4376;DHT22;2202;50.866;12.750;2023-03-16T05:03:13;-3.70;95.20
4376;DHT22;2202;50.866;12.750;2023-03-16T05:05:40;-3.70;95.40
4376;DHT22;2202;50.866;12.750;2023-03-16T05:08:07;-3.70;95.50
4376;DHT22;2202;50.866;12.750;2023-03-16T05:10:35;-3.70;95.50
4376;DHT22;2202;50.866;12.750;2023-03-16T05:13:02;-3.70;95.70
4376;DHT22;2202;50.866;12.750;2023-03-16T05:15:30;-3.70;96.10
4376;DHT22;2202;50.866;12.750;2023-03-16T05:17:58;-3.70;96.30
4376;DHT22;2202;50.866;12.750;2023-03-16T05:20:26;-3.70;96.40
4376;DHT22;2202;50.866;12.750;2023-03-16T05:22:53;-3.70;96.50
4376;DHT22;2202;50.866;12.750;2023-03-16T05:25:20;-3.80;96.80
4376;DHT22;2202;50.866;12.750;2023-03-16T05:27:48;-3.70;97.00
4376;DHT22;2202;50.866;12.750;2023-03-16T05:30:16;-3.70;96.80
4376;DHT22;2202;50.866;12.750;2023-03-16T05:32:45;-3.60;96.90
4376;DHT22;2202;50.866;12.750;2023-03-16T05:35:13;-3.70;96.90
4376;DHT22;2202;50.866;12.750;2023-03-16T05:37:40;-3.60;97.20
4376;DHT22;2202;50.866;12.750;2023-03-16T05:40:09;-3.60;97.30
4376;DHT22;2202;50.866;12.750;2023-03-16T05:42:42;-3.60;97.50
4376;DHT22;2202;50.866;12.750;2023-03-16T05:45:10;-3.50;97.60
4376;DHT22;2202;50.866;12.750;2023-03-16T05:47:38;-3.50;97.70
4376;DHT22;2202;50.866;12.750;2023-03-16T05:50:06;-3.50;97.80
4376;DHT22;2202;50.866;12.750;2023-03-16T05:52:37;-3.50;97.90
4376;DHT22;2202;50.866;12.750;2023-03-16T05:55:05;-3.40;98.00
4376;DHT22;2202;50.866;12.750;2023-03-16T05:57:33;-3.30;98.00
4376;DHT22;2202;50.866;12.750;2023-03-16T06:00:00;-3.30;97.90
4376;DHT22;2202;50.866;12.750;2023-03-16T06:02:36;-3.30;98.00
4376;DHT22;2202;50.866;12.750;2023-03-16T06:05:03;-3.20;98.00
4376;DHT22;2202;50.866;12.750;2023-03-16T06:07:30;-3.10;98.10
4376;DHT22;2202;50.866;12.750;2023-03-16T06:09:59;-3.00;98.30
4376;DHT22;2202;50.866;12.750;2023-03-16T06:12:26;-2.80;98.50
4376;DHT22;2202;50.866;12.750;2023-03-16T06:14:52;-2.60;98.50
4376;DHT22;2202;50.866;12.750;2023-03-16T06:17:19;-2.20;98.50
4376;DHT22;2202;50.866;12.750;2023-03-16T06:19:46;-2.00;98.20
4376;DHT22;2202;50.866;12.750;2023-03-16T06:22:13;-1.80;97.70
4376;DHT22;2202;50.866;12.750;2023-03-16T06:24:40;-1.60;96.90
4376;DHT22;2202;50.866;12.750;2023-03-16T06:27:08;-1.50;96.10
4376;DHT22;2202;50.866;12.750;2023-03-16T06:29:35;-1.30;95.60
4376;DHT22;2202;50.866;12.750;2023-03-16T06:32:03;-1.20;95.20
4376;DHT22;2202;50.866;12.750;2023-03-16T06:34:30;-1.10;94.50
4376;DHT22;2202;50.866;12.750;2023-03-16T06:36:57;-1.00;94.20
4376;DHT22;2202;50.866;12.750;2023-03-16T06:39:23;-0.90;93.90
4376;DHT22;2202;50.866;12.750;2023-03-16T06:41:50;-0.50;94.10
4376;DHT22;2202;50.866;12.750;2023-03-16T06:44:19;-0.10;93.40
4376;DHT22;2202;50.866;12.750;2023-03-16T06:46:46;0.20;92.10
4376;DHT22;2202;50.866;12.750;2023-03-16T06:49:13;0.80;92.30
4376;DHT22;2202;50.866;12.750;2023-03-16T06:51:40;1.50;90.30
4376;DHT22;2202;50.866;12.750;2023-03-16T06:54:07;2.20;87.20
4376;DHT22;2202;50.866;12.750;2023-03-16T06:56:34;2.70;83.20
4376;DHT22;2202;50.866;12.750;2023-03-16T06:59:01;3.20;79.60
4376;DHT22;2202;50.866;12.750;2023-03-16T07:01:29;3.50;74.80
4376;DHT22;2202;50.866;12.750;2023-03-16T07:03:56;3.60;74.00
4376;DHT22;2202;50.866;12.750;2023-03-16T07:06:23;3.50;71.40
4376;DHT22;2202;50.866;12.750;2023-03-16T07:08:50;3.40;73.40
4376;DHT22;2202;50.866;12.750;2023-03-16T07:11:17;3.50;73.40
4376;DHT22;2202;50.866;12.750;2023-03-16T07:13:44;3.70;74.20
4376;DHT22;2202;50.866;12.750;2023-03-16T07:16:11;4.20;71.40
4376;DHT22;2202;50.866;12.750;2023-03-16T07:18:39;4.40;68.40
4376;DHT22;2202;50.866;12.750;2023-03-16T07:23:44;5.10;67.80
4376;DHT22;2202;50.866;12.750;2023-03-16T07:26:11;5.00;62.40
4376;DHT22;2202;50.866;12.750;2023-03-16T07:28:38;4.90;65.60
4376;DHT22;2202;50.866;12.750;2023-03-16T07:31:06;4.70;63.20
4376;DHT22;2202;50.866;12.750;2023-03-16T07:33:34;4.60;63.60
4376;DHT22;2202;50.866;12.750;2023-03-16T07:36:03;4.60;65.80
4376;DHT22;2202;50.866;12.750;2023-03-16T07:38:30;4.80;64.60
4376;DHT22;2202;50.866;12.750;2023-03-16T07:40:58;4.90;64.60
4376;DHT22;2202;50.866;12.750;2023-03-16T07:43:25;5.30;65.80
4376;DHT22;2202;50.866;12.750;2023-03-16T07:45:52;5.60;63.60
4376;DHT22;2202;50.866;12.750;2023-03-16T07:48:19;5.90;63.00
4376;DHT22;2202;50.866;12.750;2023-03-16T07:50:46;6.00;61.80
4376;DHT22;2202;50.866;12.750;2023-03-16T07:53:15;6.00;59.40
4376;DHT22;2202;50.866;12.750;2023-03-16T07:55:42;6.00;59.20
4376;DHT22;2202;50.866;12.750;2023-03-16T07:58:08;6.00;59.40
4376;DHT22;2202;50.866;12.750;2023-03-16T08:00:36;5.90;60.10
4376;DHT22;2202;50.866;12.750;2023-03-16T08:03:03;5.70;56.40
4376;DHT22;2202;50.866;12.750;2023-03-16T08:05:30;5.60;58.90
4376;DHT22;2202;50.866;12.750;2023-03-16T08:07:58;5.30;62.60
4376;DHT22;2202;50.866;12.750;2023-03-16T08:10:27;5.50;61.80
4376;DHT22;2202;50.866;12.750;2023-03-16T08:12:55;5.60;60.60
4376;DHT22;2202;50.866;12.750;2023-03-16T08:15:22;5.80;63.80
4376;DHT22;2202;50.866;12.750;2023-03-16T08:17:49;6.00;58.50
4376;DHT22;2202;50.866;12.750;2023-03-16T08:20:17;5.80;58.20
4376;DHT22;2202;50.866;12.750;2023-03-16T08:22:44;5.80;58.00
4376;DHT22;2202;50.866;12.750;2023-03-16T08:25:13;5.90;61.60
4376;DHT22;2202;50.866;12.750;2023-03-16T08:27:41;5.90;59.60
4376;DHT22;2202;50.866;12.750;2023-03-16T08:30:09;5.90;59.40
4376;DHT22;2202;50.866;12.750;2023-03-16T08:32:37;5.90;61.00
4376;DHT22;2202;50.866;12.750;2023-03-16T08:35:06;6.10;62.60
4376;DHT22;2202;50.866;12.750;2023-03-16T08:37:33;6.30;59.90
4376;DHT22;2202;50.866;12.750;2023-03-16T08:40:00;6.40;57.60
4376;DHT22;2202;50.866;12.750;2023-03-16T08:42:31;6.30;56.60
4376;DHT22;2202;50.866;12.750;2023-03-16T08:44:59;5.90;57.60
4376;DHT22;2202;50.866;12.750;2023-03-16T08:47:34;6.00;62.00
4376;DHT22;2202;50.866;12.750;2023-03-16T08:50:00;6.30;60.10
4376;DHT22;2202;50.866;12.750;2023-03-16T08:52:28;5.70;56.60
4376;DHT22;2202;50.866;12.750;2023-03-16T08:54:56;5.50;62.80
4376;DHT22;2202;50.866;12.750;2023-03-16T08:57:23;6.00;59.90
4376;DHT22;2202;50.866;12.750;2023-03-16T08:59:49;6.20;56.20
4376;DHT22;2202;50.866;12.750;2023-03-16T09:02:18;6.30;56.70
4376;DHT22;2202;50.866;12.750;2023-03-16T09:04:45;6.30;57.10
4376;DHT22;2202;50.866;12.750;2023-03-16T09:07:12;6.10;53.90
4376;DHT22;2202;50.866;12.750;2023-03-16T09:09:38;6.10;54.80
4376;DHT22;2202;50.866;12.750;2023-03-16T09:12:06;5.40;54.40
4376;DHT22;2202;50.866;12.750;2023-03-16T09:14:33;5.50;56.60
4376;DHT22;2202;50.866;12.750;2023-03-16T09:17:02;5.80;55.90
4376;DHT22;2202;50.866;12.750;2023-03-16T09:19:31;5.90;54.10
4376;DHT22;2202;50.866;12.750;2023-03-16T09:21:58;5.80;50.30
4376;DHT22;2202;50.866;12.750;2023-03-16T09:24:25;5.60;55.30
4376;DHT22;2202;50.866;12.750;2023-03-16T09:26:52;5.80;54.40
4376;DHT22;2202;50.866;12.750;2023-03-16T09:29:18;5.90;55.70
4376;DHT22;2202;50.866;12.750;2023-03-16T09:31:47;6.00;55.70
4376;DHT22;2202;50.866;12.750;2023-03-16T09:34:14;6.10;57.80
4376;DHT22;2202;50.866;12.750;2023-03-16T09:36:42;6.50;55.90
4376;DHT22;2202;50.866;12.750;2023-03-16T09:39:09;6.60;50.00
4376;DHT22;2202;50.866;12.750;2023-03-16T09:41:43;6.50;48.40
4376;DHT22;2202;50.866;12.750;2023-03-16T09:44:32;6.30;48.00
4376;DHT22;2202;50.866;12.750;2023-03-16T09:47:04;6.30;51.80
4376;DHT22;2202;50.866;12.750;2023-03-16T09:49:35;6.50;51.40
4376;DHT22;2202;50.866;12.750;2023-03-16T09:52:11;6.80;49.80
4376;DHT22;2202;50.866;12.750;2023-03-16T09:54:47;6.80;51.90
4376;DHT22;2202;50.866;12.750;2023-03-16T09:57:25;6.40;49.50
4376;DHT22;2202;50.866;12.750;2023-03-16T09:59:52;6.00;50.00
4376;DHT22;2202;50.866;12.750;2023-03-16T10:05:22;5.80;52.70
4376;DHT22;2202;50.866;12.750;2023-03-16T10:07:59;5.70;52.80
4376;DHT22;2202;50.866;12.750;2023-03-16T10:13:29;5.70;53.90
4376;DHT22;2202;50.866;12.750;2023-03-16T10:16:01;5.90;56.00
4376;DHT22;2202;50.866;12.750;2023-03-16T10:18:36;5.90;53.70
4376;DHT22;2202;50.866;12.750;2023-03-16T10:21:10;5.70;51.90
4376;DHT22;2202;50.866;12.750;2023-03-16T10:23:39;5.80;53.40
4376;DHT22;2202;50.866;12.750;2023-03-16T10:26:12;5.90;54.80
4376;DHT22;2202;50.866;12.750;2023-03-16T10:28:39;6.10;52.30
4376;DHT22;2202;50.866;12.750;2023-03-16T10:31:08;6.30;52.50
4376;DHT22;2202;50.866;12.750;2023-03-16T10:33:36;6.30;48.60
4376;DHT22;2202;50.866;12.750;2023-03-16T10:36:12;5.90;49.60
4376;DHT22;2202;50.866;12.750;2023-03-16T10:38:43;5.80;52.80
4376;DHT22;2202;50.866;12.750;2023-03-16T10:41:27;5.90;51.90
4376;DHT22;2202;50.866;12.750;2023-03-16T10:43:56;5.70;47.90
4376;DHT22;2202;50.866;12.750;2023-03-16T10:46:25;5.80;46.30
4376;DHT22;2202;50.866;12.750;2023-03-16T10:48:55;6.00;51.40
4376;DHT22;2202;50.866;12.750;2023-03-16T10:51:26;6.20;52.10
4376;DHT22;2202;50.866;12.750;2023-03-16T10:54:06;6.30;51.60
4376;DHT22;2202;50.866;12.750;2023-03-16T10:56:35;6.70;53.00
4376;DHT22;2202;50.866;12.750;2023-03-16T10:59:13;6.90;53.00
4376;DHT22;2202;50.866;12.750;2023-03-16T11:01:44;7.20;51.60
4376;DHT22;2202;50.866;12.750;2023-03-16T11:04:13;7.20;47.90
4376;DHT22;2202;50.866;12.750;2023-03-16T11:06:48;7.30;51.80
4376;DHT22;2202;50.866;12.750;2023-03-16T11:09:22;7.30;49.30
4376;DHT22;2202;50.866;12.750;2023-03-16T11:11:50;7.20;50.00
4376;DHT22;2202;50.866;12.750;2023-03-16T11:14:20;7.50;49.60
4376;DHT22;2202;50.866;12.750;2023-03-16T11:16:52;7.50;47.30
4376;DHT22;2202;50.866;12.750;2023-03-16T11:19:23;7.30;49.50
4376;DHT22;2202;50.866;12.750;2023-03-16T11:21:55;7.30;49.50
4376;DHT22;2202;50.866;12.750;2023-03-16T11:24:28;7.50;50.90
4376;DHT22;2202;50.866;12.750;2023-03-16T11:26:58;7.70;52.70
4376;DHT22;2202;50.866;12.750;2023-03-16T11:29:31;7.80;46.10
4376;DHT22;2202;50.866;12.750;2023-03-16T11:32:03;7.70;48.60
4376;DHT22;2202;50.866;12.750;2023-03-16T11:34:31;7.90;49.60
4376;DHT22;2202;50.866;12.750;2023-03-16T11:37:04;7.80;46.80
4376;DHT22;2202;50.866;12.750;2023-03-16T11:39:41;7.50;46.60
4376;DHT22;2202;50.866;12.750;2023-03-16T11:42:26;7.70;48.20
4376;DHT22;2202;50.866;12.750;2023-03-16T11:44:56;7.50;49.50
4376;DHT22;2202;50.866;12.750;2023-03-16T11:47:43;7.80;50.20
4376;DHT22;2202;50.866;12.750;2023-03-16T11:50:17;7.90;44.10
4376;DHT22;2202;50.866;12.750;2023-03-16T11:52:52;8.10;44.00
4376;DHT22;2202;50.866;12.750;2023-03-16T11:55:34;7.90;47.50
4376;DHT22;2202;50.866;12.750;2023-03-16T11:58:14;8.10;48.90
4376;DHT22;2202;50.866;12.750;2023-03-16T12:00:51;8.40;44.30
4376;DHT22;2202;50.866;12.750;2023-03-16T12:03:54;8.10;39.90
4376;DHT22;2202;50.866;12.750;2023-03-16T12:06:32;8.20;42.90
4376;DHT22;2202;50.866;12.750;2023-03-16T12:12:25;8.50;45.00
4376;DHT22;2202;50.866;12.750;2023-03-16T12:15:05;8.30;44.50
4376;DHT22;2202;50.866;12.750;2023-03-16T12:17:35;7.80;42.20
4376;DHT22;2202;50.866;12.750;2023-03-16T12:20:06;8.00;42.40
4376;DHT22;2202;50.866;12.750;2023-03-16T12:22:43;7.80;42.00
4376;DHT22;2202;50.866;12.750;2023-03-16T12:25:16;7.30;46.10
4376;DHT22;2202;50.866;12.750;2023-03-16T12:27:47;7.20;44.10
4376;DHT22;2202;50.866;12.750;2023-03-16T12:30:25;7.40;43.40
4376;DHT22;2202;50.866;12.750;2023-03-16T12:32:57;7.70;45.90
4376;DHT22;2202;50.866;12.750;2023-03-16T12:35:35;8.00;47.50
4376;DHT22;2202;50.866;12.750;2023-03-16T12:41:05;8.70;42.40
4376;DHT22;2202;50.866;12.750;2023-03-16T12:43:48;8.90;40.80
4376;DHT22;2202;50.866;12.750;2023-03-16T12:46:23;9.00;43.80
4376;DHT22;2202;50.866;12.750;2023-03-16T12:48:56;9.00;42.20
4376;DHT22;2202;50.866;12.750;2023-03-16T12:51:32;9.00;40.10
4376;DHT22;2202;50.866;12.750;2023-03-16T12:54:00;9.00;38.50
4376;DHT22;2202;50.866;12.750;2023-03-16T12:56:30;8.50;40.80
4376;DHT22;2202;50.866;12.750;2023-03-16T12:59:01;8.30;42.40
4376;DHT22;2202;50.866;12.750;2023-03-16T13:01:29;8.50;46.60
4376;DHT22;2202;50.866;12.750;2023-03-16T13:04:12;8.50;46.60
4376;DHT22;2202;50.866;12.750;2023-03-16T13:06:43;8.60;45.40
4376;DHT22;2202;50.866;12.750;2023-03-16T13:09:17;8.60;45.60
4376;DHT22;2202;50.866;12.750;2023-03-16T13:11:48;8.70;46.40
4376;DHT22;2202;50.866;12.750;2023-03-16T13:14:33;9.00;45.40
4376;DHT22;2202;50.866;12.750;2023-03-16T13:17:06;9.30;44.30
4376;DHT22;2202;50.866;12.750;2023-03-16T13:19:58;9.10;41.10
4376;DHT22;2202;50.866;12.750;2023-03-16T13:22:27;9.10;40.40
4376;DHT22;2202;50.866;12.750;2023-03-16T13:24:55;9.20;41.50
4376;DHT22;2202;50.866;12.750;2023-03-16T13:27:27;9.10;41.70
4376;DHT22;2202;50.866;12.750;2023-03-16T13:29:58;9.10;44.10
4376;DHT22;2202;50.866;12.750;2023-03-16T13:32:32;9.20;42.50
4376;DHT22;2202;50.866;12.750;2023-03-16T13:35:01;9.20;44.30
4376;DHT22;2202;50.866;12.750;2023-03-16T13:37:30;9.00;40.80
4376;DHT22;2202;50.866;12.750;2023-03-16T13:39:59;9.00;43.60
4376;DHT22;2202;50.866;12.750;2023-03-16T13:42:28;8.70;40.80
4376;DHT22;2202;50.866;12.750;2023-03-16T13:44:58;8.80;42.70
4376;DHT22;2202;50.866;12.750;2023-03-16T13:47:32;9.00;42.50
4376;DHT22;2202;50.866;12.750;2023-03-16T13:49:59;9.10;42.50
4376;DHT22;2202;50.866;12.750;2023-03-16T13:52:27;9.20;44.10
4376;DHT22;2202;50.866;12.750;2023-03-16T13:54:55;9.10;44.70
4376;DHT22;2202;50.866;12.750;2023-03-16T13:57:24;9.20;44.80
4376;DHT22;2202;50.866;12.750;2023-03-16T14:00:16;9.30;44.70
4376;DHT22;2202;50.866;12.750;2023-03-16T14:02:45;9.30;44.30
4376;DHT22;2202;50.866;12.750;2023-03-16T14:05:17;9.40;43.60
4376;DHT22;2202;50.866;12.750;2023-03-16T14:07:46;9.40;42.90
4376;DHT22;2202;50.866;12.750;2023-03-16T14:10:14;9.20;43.80
4376;DHT22;2202;50.866;12.750;2023-03-16T14:12:49;9.00;45.00
4376;DHT22;2202;50.866;12.750;2023-03-16T14:15:18;9.20;44.50
4376;DHT22;2202;50.866;12.750;2023-03-16T14:17:45;9.30;45.40
4376;DHT22;2202;50.866;12.750;2023-03-16T14:20:18;9.30;42.00
4376;DHT22;2202;50.866;12.750;2023-03-16T14:22:45;9.20;44.80
4376;DHT22;2202;50.866;12.750;2023-03-16T14:25:18;9.00;45.60
4376;DHT22;2202;50.866;12.750;2023-03-16T14:27:47;9.00;46.30
4376;DHT22;2202;50.866;12.750;2023-03-16T14:30:16;9.10;46.30
4376;DHT22;2202;50.866;12.750;2023-03-16T14:32:56;9.30;45.70
4376;DHT22;2202;50.866;12.750;2023-03-16T14:35:26;9.50;43.40
4376;DHT22;2202;50.866;12.750;2023-03-16T14:37:53;9.80;44.00
4376;DHT22;2202;50.866;12.750;2023-03-16T14:40:25;9.90;42.90
4376;DHT22;2202;50.866;12.750;2023-03-16T14:42:54;9.60;43.80
4376;DHT22;2202;50.866;12.750;2023-03-16T14:45:26;9.80;41.30
4376;DHT22;2202;50.866;12.750;2023-03-16T14:48:02;9.90;41.50
4376;DHT22;2202;50.866;12.750;2023-03-16T14:50:30;10.00;38.10
4376;DHT22;2202;50.866;12.750;2023-03-16T14:52:58;10.10;39.20
4376;DHT22;2202;50.866;12.750;2023-03-16T14:55:25;9.80;36.70
4376;DHT22;2202;50.866;12.750;2023-03-16T14:57:52;9.60;41.70
4376;DHT22;2202;50.866;12.750;2023-03-16T15:00:20;9.50;42.00
4376;DHT22;2202;50.866;12.750;2023-03-16T15:02:55;9.30;40.10
4376;DHT22;2202;50.866;12.750;2023-03-16T15:05:30;9.20;39.00
4376;DHT22;2202;50.866;12.750;2023-03-16T15:07:57;9.10;39.90
4376;DHT22;2202;50.866;12.750;2023-03-16T15:10:26;9.10;38.10
4376;DHT22;2202;50.866;12.750;2023-03-16T15:12:54;9.10;38.30
4376;DHT22;2202;50.866;12.750;2023-03-16T15:15:29;9.20;38.80
4376;DHT22;2202;50.866;12.750;2023-03-16T15:17:57;9.30;40.60
4376;DHT22;2202;50.866;12.750;2023-03-16T15:20:30;9.50;41.50
4376;DHT22;2202;50.866;12.750;2023-03-16T15:22:59;9.40;36.90
4376;DHT22;2202;50.866;12.750;2023-03-16T15:25:32;9.20;38.50
4376;DHT22;2202;50.866;12.750;2023-03-16T15:28:10;9.20;36.00
4376;DHT22;2202;50.866;12.750;2023-03-16T15:30:37;9.20;38.60
4376;DHT22;2202;50.866;12.750;2023-03-16T15:33:05;9.30;38.60
4376;DHT22;2202;50.866;12.750;2023-03-16T15:35:33;9.30;37.60
4376;DHT22;2202;50.866;12.750;2023-03-16T15:38:06;9.30;36.70
4376;DHT22;2202;50.866;12.750;2023-03-16T15:40:38;9.20;38.30
4376;DHT22;2202;50.866;12.750;2023-03-16T15:43:09;9.00;37.20
4376;DHT22;2202;50.866;12.750;2023-03-16T15:45:37;8.90;39.70
4376;DHT22;2202;50.866;12.750;2023-03-16T15:48:04;8.90;40.10
4376;DHT22;2202;50.866;12.750;2023-03-16T15:50:33;8.90;40.40
4376;DHT22;2202;50.866;12.750;2023-03-16T15:53:03;8.70;40.80
4376;DHT22;2202;50.866;12.750;2023-03-16T15:55:34;8.70;42.50
4376;DHT22;2202;50.866;12.750;2023-03-16T15:58:02;8.80;45.40
4376;DHT22;2202;50.866;12.750;2023-03-16T16:00:32;8.60;44.70
4376;DHT22;2202;50.866;12.750;2023-03-16T16:03:01;8.30;45.60
4376;DHT22;2202;50.866;12.750;2023-03-16T16:05:28;8.20;47.00
4376;DHT22;2202;50.866;12.750;2023-03-16T16:07:58;8.10;46.60
4376;DHT22;2202;50.866;12.750;2023-03-16T16:10:25;8.10;46.80
4376;DHT22;2202;50.866;12.750;2023-03-16T16:12:54;8.00;47.00
4376;DHT22;2202;50.866;12.750;2023-03-16T16:15:23;8.00;47.90
4376;DHT22;2202;50.866;12.750;2023-03-16T16:17:52;7.80;47.00
4376;DHT22;2202;50.866;12.750;2023-03-16T16:20:21;7.60;48.80
4376;DHT22;2202;50.866;12.750;2023-03-16T16:22:49;7.50;47.90
4376;DHT22;2202;50.866;12.750;2023-03-16T16:25:19;7.30;47.90
4376;DHT22;2202;50.866;12.750;2023-03-16T16:27:47;7.20;48.00